Time;durP1;ratioP1;P1;durP2;ratioP2;P2;SDS_P1;SDS_P2;PMS_P1;PMS_P2;Temp;Humidity;BMP_temperature;BMP_pressure;BME280_temperature;BME280_humidity;BME280_pressure;Samples;Min_cycle;Max_cycle;Signal;HPM_P1;HPM_P2
2023/08/05 00:01:50;;;;;;;18.33;14.60;;;;;;;;;;5054482;28;20699;-64
2023/08/05 00:04:17;;;;;;;16.63;12.23;;;;;;;;;;5054599;28;20214;-65
2023/08/05 00:06:45;;;;;;;15.45;12.65;;;;;;;;;;5055251;28;20231;-63
2023/08/05 00:09:12;;;;;;;14.73;12.20;;;;;;;;;;5055682;28;20229;-64
2023/08/05 00:11:40;;;;;;;15.88;12.20;;;;;;;;;;5056535;28;20201;-68
2023/08/05 00:14:07;;;;;;;16.83;12.60;;;;;;;;;;5057206;28;20236;-66
2023/08/05 00:16:35;;;;;;;14.02;11.52;;;;;;;;;;5059876;28;20260;-65
2023/08/05 00:19:02;;;;;;;16.85;13.48;;;;;;;;;;5058829;28;20225;-68
2023/08/05 00:21:29;;;;;;;16.50;12.57;;;;;;;;;;5057042;28;20258;-66
2023/08/05 00:23:57;;;;;;;14.50;11.77;;;;;;;;;;5063000;28;20204;-67
2023/08/05 00:26:24;;;;;;;17.30;12.73;;;;;;;;;;5057952;28;20222;-65
2023/08/05 00:28:51;;;;;;;17.42;12.57;;;;;;;;;;5060199;28;20628;-64
2023/08/05 00:31:19;;;;;;;18.45;13.32;;;;;;;;;;5060821;28;20229;-66
2023/08/05 00:33:46;;;;;;;16.17;14.27;;;;;;;;;;5056507;28;20618;-68
2023/08/05 00:36:13;;;;;;;15.45;12.60;;;;;;;;;;5056727;28;20615;-65
2023/08/05 00:38:41;;;;;;;18.88;15.05;;;;;;;;;;5059474;28;20218;-69
2023/08/05 00:41:08;;;;;;;17.98;13.73;;;;;;;;;;5057056;28;20373;-63
2023/08/05 00:43:35;;;;;;;18.90;13.90;;;;;;;;;;5059181;28;20293;-66
2023/08/05 00:46:02;;;;;;;18.03;12.93;;;;;;;;;;5058190;28;20414;-67
2023/08/05 00:48:30;;;;;;;15.35;12.63;;;;;;;;;;5056277;28;20532;-65
2023/08/05 00:50:58;;;;;;;16.08;13.05;;;;;;;;;;5056913;28;20686;-70
2023/08/05 00:53:25;;;;;;;17.45;12.98;;;;;;;;;;5057218;28;20205;-69
2023/08/05 00:55:52;;;;;;;19.30;12.97;;;;;;;;;;5054377;28;20714;-67
2023/08/05 00:58:21;;;;;;;18.93;14.00;;;;;;;;;;5059458;28;20240;-66
2023/08/05 01:00:48;;;;;;;21.53;14.20;;;;;;;;;;5059232;28;20237;-68
2023/08/05 01:03:16;;;;;;;17.27;13.40;;;;;;;;;;5055538;28;20218;-66
2023/08/05 01:05:44;;;;;;;20.75;14.10;;;;;;;;;;5055336;28;20202;-73
2023/08/05 01:08:12;;;;;;;16.60;13.63;;;;;;;;;;5058628;28;20310;-65
2023/08/05 01:10:40;;;;;;;19.53;13.20;;;;;;;;;;5057020;28;20210;-66
2023/08/05 01:13:08;;;;;;;15.77;12.80;;;;;;;;;;5056659;28;20210;-64
2023/08/05 01:15:35;;;;;;;20.17;12.77;;;;;;;;;;5058525;28;20675;-66
2023/08/05 01:18:04;;;;;;;15.82;12.02;;;;;;;;;;5056209;28;20283;-65
2023/08/05 01:20:34;;;;;;;19.17;13.15;;;;;;;;;;5056852;28;20609;-65
2023/08/05 01:23:07;;;;;;;17.00;12.77;;;;;;;;;;5056478;28;20237;-65
2023/08/05 01:25:35;;;;;;;18.73;13.27;;;;;;;;;;5058147;28;20206;-65
2023/08/05 01:28:02;;;;;;;17.00;13.80;;;;;;;;;;5064766;28;20225;-64
2023/08/05 01:30:30;;;;;;;19.10;13.50;;;;;;;;;;5045833;28;20213;-66
2023/08/05 01:32:59;;;;;;;16.77;13.80;;;;;;;;;;5058518;28;20214;-68
2023/08/05 01:35:27;;;;;;;19.45;14.52;;;;;;;;;;5056147;28;20439;-67
2023/08/05 01:37:54;;;;;;;20.37;14.57;;;;;;;;;;5040836;28;20618;-65
2023/08/05 01:40:24;;;;;;;16.25;13.38;;;;;;;;;;5060401;28;20226;-67
2023/08/05 01:42:51;;;;;;;20.10;14.63;;;;;;;;;;5058741;28;20248;-66
2023/08/05 01:45:19;;;;;;;18.45;13.13;;;;;;;;;;5054941;28;21555;-66
2023/08/05 01:47:46;;;;;;;17.63;14.43;;;;;;;;;;5053993;28;20217;-70
2023/08/05 01:50:13;;;;;;;16.23;13.18;;;;;;;;;;5061291;28;20214;-67
2023/08/05 01:52:41;;;;;;;18.17;13.50;;;;;;;;;;5056980;28;20203;-67
2023/08/05 01:55:08;;;;;;;19.67;14.32;;;;;;;;;;5040981;28;20220;-63
2023/08/05 01:57:35;;;;;;;19.53;14.77;;;;;;;;;;5039078;28;20206;-68
2023/08/05 02:00:03;;;;;;;20.35;14.07;;;;;;;;;;5052418;28;20291;-69
2023/08/05 02:02:30;;;;;;;20.40;14.90;;;;;;;;;;5054605;28;20222;-64
2023/08/05 02:04:58;;;;;;;19.70;15.33;;;;;;;;;;5056987;28;20205;-68
2023/08/05 02:07:25;;;;;;;18.90;14.30;;;;;;;;;;5056089;28;20670;-70
2023/08/05 02:09:52;;;;;;;19.05;15.45;;;;;;;;;;5061418;28;20313;-66
2023/08/05 02:12:19;;;;;;;18.90;15.02;;;;;;;;;;5051084;28;20621;-66
2023/08/05 02:14:50;;;;;;;18.27;13.77;;;;;;;;;;5055398;28;20206;-65
2023/08/05 02:17:17;;;;;;;18.90;13.45;;;;;;;;;;5037281;28;20194;-65
2023/08/05 02:19:44;;;;;;;19.70;13.82;;;;;;;;;;5039871;28;20243;-66
2023/08/05 02:22:12;;;;;;;20.10;13.80;;;;;;;;;;5056368;28;20206;-71
2023/08/05 02:24:39;;;;;;;17.55;14.40;;;;;;;;;;5055000;28;20202;-65
2023/08/05 02:27:07;;;;;;;17.75;13.65;;;;;;;;;;5055544;28;20206;-70
2023/08/05 02:29:34;;;;;;;17.02;13.07;;;;;;;;;;5055941;28;20296;-69
2023/08/05 02:32:02;;;;;;;18.27;13.10;;;;;;;;;;5058835;28;20250;-68
2023/08/05 02:34:29;;;;;;;19.92;13.90;;;;;;;;;;5052489;28;20207;-67
2023/08/05 02:36:57;;;;;;;18.23;13.70;;;;;;;;;;5058882;28;20208;-68
2023/08/05 02:39:25;;;;;;;17.25;12.50;;;;;;;;;;5051420;28;20214;-70
2023/08/05 02:41:52;;;;;;;16.10;12.80;;;;;;;;;;5059924;28;20221;-68
2023/08/05 02:44:20;;;;;;;18.88;12.00;;;;;;;;;;5056192;28;20260;-72
2023/08/05 02:46:47;;;;;;;16.50;11.63;;;;;;;;;;5054959;28;20611;-69
2023/08/05 02:49:15;;;;;;;17.48;12.43;;;;;;;;;;5052574;28;20320;-65
2023/08/05 02:51:42;;;;;;;15.00;12.02;;;;;;;;;;5056424;28;20213;-64
2023/08/05 02:54:09;;;;;;;15.43;11.25;;;;;;;;;;5054758;28;20218;-68
2023/08/05 02:56:37;;;;;;;17.38;12.20;;;;;;;;;;5053461;28;21976;-66
2023/08/05 02:59:04;;;;;;;15.77;11.43;;;;;;;;;;5053638;28;20230;-67
2023/08/05 03:01:32;;;;;;;15.50;11.50;;;;;;;;;;5053758;28;20363;-68
2023/08/05 03:03:59;;;;;;;13.18;10.75;;;;;;;;;;5056484;28;20213;-65
2023/08/05 03:06:26;;;;;;;16.17;11.25;;;;;;;;;;5064216;28;20603;-69
2023/08/05 03:08:54;;;;;;;17.25;12.57;;;;;;;;;;5062070;28;20225;-65
2023/08/05 03:11:22;;;;;;;13.35;11.25;;;;;;;;;;5059926;28;20210;-66
2023/08/05 03:13:49;;;;;;;15.32;11.05;;;;;;;;;;5040412;28;20670;-68
2023/08/05 03:16:16;;;;;;;13.98;11.52;;;;;;;;;;5052137;28;20680;-65
2023/08/05 03:18:44;;;;;;;16.02;11.38;;;;;;;;;;5052952;28;20314;-65
2023/08/05 03:21:11;;;;;;;15.83;11.83;;;;;;;;;;5061709;28;20225;-66
2023/08/05 03:23:38;;;;;;;15.48;11.65;;;;;;;;;;5052981;28;20194;-66
2023/08/05 03:26:05;;;;;;;18.02;12.10;;;;;;;;;;5065264;28;20211;-64
2023/08/05 03:28:33;;;;;;;13.00;11.63;;;;;;;;;;5063746;28;20217;-66
2023/08/05 03:31:00;;;;;;;17.33;11.55;;;;;;;;;;5056855;28;20266;-65
2023/08/05 03:33:27;;;;;;;13.20;10.45;;;;;;;;;;5051379;28;20206;-69
2023/08/05 03:35:55;;;;;;;16.08;11.27;;;;;;;;;;5048121;28;20218;-64
2023/08/05 03:38:22;;;;;;;14.30;11.13;;;;;;;;;;5053955;28;20605;-64
2023/08/05 03:40:49;;;;;;;15.63;11.60;;;;;;;;;;5039668;28;20294;-69
2023/08/05 03:43:17;;;;;;;15.52;11.80;;;;;;;;;;5050911;28;20201;-64
2023/08/05 03:45:51;;;;;;;15.75;10.80;;;;;;;;;;5055694;28;20202;-67
2023/08/05 03:48:18;;;;;;;17.63;12.10;;;;;;;;;;5062620;28;20235;-68
2023/08/05 03:50:46;;;;;;;20.92;14.50;;;;;;;;;;5053747;28;20213;-67
2023/08/05 03:53:13;;;;;;;20.27;12.55;;;;;;;;;;5051528;28;20208;-64
2023/08/05 03:55:40;;;;;;;23.92;13.95;;;;;;;;;;5053557;28;20206;-71
2023/08/05 03:58:08;;;;;;;13.43;11.48;;;;;;;;;;5053340;28;20276;-69
2023/08/05 04:00:36;;;;;;;20.45;11.95;;;;;;;;;;5051771;28;20267;-70
2023/08/05 04:03:04;;;;;;;25.17;17.40;;;;;;;;;;5052215;28;20210;-65
2023/08/05 04:05:31;;;;;;;15.68;11.95;;;;;;;;;;5056539;28;20293;-69
2023/08/05 04:07:58;;;;;;;16.42;12.20;;;;;;;;;;5059602;28;20202;-67
2023/08/05 04:10:26;;;;;;;15.68;12.32;;;;;;;;;;5059465;28;20271;-66
2023/08/05 04:12:54;;;;;;;17.55;13.30;;;;;;;;;;5052727;28;20255;-65
2023/08/05 04:15:23;;;;;;;17.60;14.43;;;;;;;;;;5045637;28;20209;-66
2023/08/05 04:17:53;;;;;;;20.48;15.40;;;;;;;;;;5046990;28;20216;-66
2023/08/05 04:20:21;;;;;;;23.77;16.23;;;;;;;;;;5055963;28;20261;-65
2023/08/05 04:22:49;;;;;;;18.95;14.75;;;;;;;;;;5046455;28;20202;-67
2023/08/05 04:25:17;;;;;;;21.52;15.15;;;;;;;;;;5052926;28;20202;-70
2023/08/05 04:27:44;;;;;;;21.23;15.82;;;;;;;;;;5045754;28;20225;-72
2023/08/05 04:30:11;;;;;;;19.67;15.73;;;;;;;;;;5054380;28;20729;-66
2023/08/05 04:32:39;;;;;;;19.65;15.40;;;;;;;;;;5053752;28;20198;-66
2023/08/05 04:35:06;;;;;;;21.38;16.02;;;;;;;;;;5056238;28;20310;-67
2023/08/05 04:37:34;;;;;;;18.15;15.35;;;;;;;;;;5050961;28;20737;-65
2023/08/05 04:40:01;;;;;;;20.13;15.50;;;;;;;;;;5057582;28;20224;-66
2023/08/05 04:42:29;;;;;;;17.40;15.55;;;;;;;;;;5052901;28;20229;-71
2023/08/05 04:44:56;;;;;;;16.85;14.38;;;;;;;;;;5058274;28;20193;-65
2023/08/05 04:47:23;;;;;;;19.10;15.32;;;;;;;;;;5050986;28;20691;-69
2023/08/05 04:49:51;;;;;;;21.83;15.80;;;;;;;;;;5055937;28;20264;-66
2023/08/05 04:52:18;;;;;;;19.80;15.13;;;;;;;;;;5053346;28;20211;-67
2023/08/05 04:54:45;;;;;;;17.63;15.18;;;;;;;;;;5052088;28;20235;-72
2023/08/05 04:57:13;;;;;;;17.85;15.57;;;;;;;;;;5038460;28;20206;-66
2023/08/05 04:59:40;;;;;;;19.23;15.18;;;;;;;;;;5057581;28;20222;-69
2023/08/05 05:02:08;;;;;;;18.77;14.60;;;;;;;;;;5056530;28;20768;-68
2023/08/05 05:04:35;;;;;;;20.42;15.48;;;;;;;;;;5052890;28;20201;-67
2023/08/05 05:07:02;;;;;;;19.92;15.23;;;;;;;;;;5054383;28;20228;-71
2023/08/05 05:09:30;;;;;;;18.08;15.63;;;;;;;;;;5055270;28;20665;-66
2023/08/05 05:12:00;;;;;;;18.50;15.27;;;;;;;;;;5060269;28;20680;-69
2023/08/05 05:14:27;;;;;;;21.67;15.80;;;;;;;;;;5051309;28;20206;-67
2023/08/05 05:16:54;;;;;;;19.02;15.82;;;;;;;;;;5059775;28;20209;-68
2023/08/05 05:19:21;;;;;;;21.33;16.23;;;;;;;;;;5053912;28;20226;-65
2023/08/05 05:21:49;;;;;;;21.87;16.47;;;;;;;;;;5058449;28;20256;-68
2023/08/05 05:24:16;;;;;;;20.40;15.37;;;;;;;;;;5055870;28;20206;-65
2023/08/05 05:26:43;;;;;;;21.10;16.90;;;;;;;;;;5042151;28;20203;-68
2023/08/05 05:29:11;;;;;;;23.85;18.48;;;;;;;;;;5059716;28;20903;-64
2023/08/05 05:31:38;;;;;;;25.48;18.38;;;;;;;;;;5055632;28;20302;-64
2023/08/05 05:34:05;;;;;;;23.17;18.58;;;;;;;;;;5058632;28;20283;-70
2023/08/05 05:36:33;;;;;;;21.48;17.67;;;;;;;;;;5051422;28;20214;-67
2023/08/05 05:39:00;;;;;;;22.55;17.10;;;;;;;;;;5056511;28;20233;-65
2023/08/05 05:41:27;;;;;;;20.70;17.48;;;;;;;;;;5056135;28;20271;-66
2023/08/05 05:43:56;;;;;;;19.50;16.92;;;;;;;;;;5064846;28;20213;-67
2023/08/05 05:46:23;;;;;;;20.83;16.95;;;;;;;;;;5057994;28;20627;-67
2023/08/05 05:48:50;;;;;;;22.70;17.30;;;;;;;;;;5052839;28;20237;-67
2023/08/05 05:51:18;;;;;;;22.42;18.52;;;;;;;;;;5052970;28;20291;-69
2023/08/05 05:53:45;;;;;;;22.95;18.13;;;;;;;;;;5051260;28;20214;-64
2023/08/05 05:56:12;;;;;;;27.67;17.67;;;;;;;;;;5057145;28;20211;-68
2023/08/05 05:58:40;;;;;;;25.38;17.95;;;;;;;;;;5057522;28;20222;-64
2023/08/05 06:01:07;;;;;;;20.30;17.95;;;;;;;;;;5055022;28;20253;-68
2023/08/05 06:03:35;;;;;;;24.40;18.73;;;;;;;;;;5055198;28;20205;-66
2023/08/05 06:06:02;;;;;;;20.50;17.58;;;;;;;;;;5060526;28;20204;-67
2023/08/05 06:08:30;;;;;;;22.30;18.45;;;;;;;;;;5038177;28;20237;-65
2023/08/05 06:11:03;;;;;;;21.33;17.45;;;;;;;;;;5055360;28;20550;-68
2023/08/05 06:13:30;;;;;;;23.17;18.13;;;;;;;;;;5059340;28;20500;-69
2023/08/05 06:15:57;;;;;;;20.27;16.80;;;;;;;;;;5065984;28;20642;-67
2023/08/05 06:18:25;;;;;;;20.48;17.08;;;;;;;;;;5053857;28;20240;-71
2023/08/05 06:20:52;;;;;;;22.00;17.17;;;;;;;;;;5056764;28;20222;-68
2023/08/05 06:23:19;;;;;;;22.48;16.60;;;;;;;;;;5059886;28;20867;-67
2023/08/05 06:25:47;;;;;;;24.63;18.20;;;;;;;;;;5059630;28;20194;-66
2023/08/05 06:28:14;;;;;;;21.33;18.77;;;;;;;;;;5049247;28;20222;-64
2023/08/05 06:30:48;;;;;;;19.95;16.98;;;;;;;;;;5052785;28;20201;-65
2023/08/05 06:33:15;;;;;;;16.80;15.00;;;;;;;;;;5060549;28;20197;-66
2023/08/05 06:35:42;;;;;;;20.75;15.82;;;;;;;;;;5051269;28;20257;-65
2023/08/05 06:38:10;;;;;;;16.00;14.35;;;;;;;;;;5047636;28;20238;-74
2023/08/05 06:40:41;;;;;;;20.05;14.73;;;;;;;;;;5040113;28;20206;-67
2023/08/05 06:43:08;;;;;;;16.92;15.00;;;;;;;;;;5044741;28;20203;-72
2023/08/05 06:45:35;;;;;;;17.40;14.02;;;;;;;;;;5045853;28;20202;-68
2023/08/05 06:48:03;;;;;;;15.50;13.98;;;;;;;;;;5048402;28;20202;-67
2023/08/05 06:50:30;;;;;;;16.02;12.60;;;;;;;;;;5053149;28;20945;-64
2023/08/05 06:52:57;;;;;;;19.42;15.15;;;;;;;;;;5034773;28;20202;-69
2023/08/05 06:55:25;;;;;;;25.70;17.25;;;;;;;;;;5044355;28;20934;-71
2023/08/05 06:57:52;;;;;;;21.50;15.50;;;;;;;;;;5043062;28;20210;-68
2023/08/05 07:00:19;;;;;;;15.68;13.07;;;;;;;;;;5049212;28;20256;-69
2023/08/05 07:02:46;;;;;;;14.27;12.65;;;;;;;;;;5045070;28;20307;-64
2023/08/05 07:05:14;;;;;;;13.52;11.75;;;;;;;;;;5046172;28;20343;-71
2023/08/05 07:07:41;;;;;;;14.23;11.85;;;;;;;;;;5056695;28;20201;-67
2023/08/05 07:10:11;;;;;;;13.02;11.63;;;;;;;;;;5050532;28;20699;-66
2023/08/05 07:12:39;;;;;;;16.25;12.23;;;;;;;;;;5044444;28;20202;-69
2023/08/05 07:15:06;;;;;;;13.13;11.57;;;;;;;;;;5057452;28;20213;-65
2023/08/05 07:17:33;;;;;;;16.52;11.60;;;;;;;;;;5041262;28;20211;-66
2023/08/05 07:20:01;;;;;;;12.63;10.88;;;;;;;;;;5038584;28;20276;-68
2023/08/05 07:22:28;;;;;;;12.30;11.05;;;;;;;;;;5057968;28;21250;-66
2023/08/05 07:24:56;;;;;;;13.40;12.00;;;;;;;;;;5056698;28;20201;-66
2023/08/05 07:27:23;;;;;;;13.93;11.23;;;;;;;;;;5060397;28;20208;-69
2023/08/05 07:29:50;;;;;;;12.90;11.57;;;;;;;;;;5061441;28;20214;-65
2023/08/05 07:32:18;;;;;;;22.05;17.13;;;;;;;;;;5060497;28;20201;-70
2023/08/05 07:34:47;;;;;;;15.75;12.20;;;;;;;;;;5052413;28;22115;-68
2023/08/05 07:37:16;;;;;;;11.00;9.93;;;;;;;;;;5059871;28;20664;-68
2023/08/05 07:39:47;;;;;;;14.52;10.88;;;;;;;;;;5062165;28;20475;-66
2023/08/05 07:42:15;;;;;;;15.02;11.68;;;;;;;;;;5053020;28;20226;-67
2023/08/05 07:44:44;;;;;;;11.70;9.40;;;;;;;;;;5059921;28;20203;-68
2023/08/05 07:47:12;;;;;;;17.05;13.27;;;;;;;;;;5057026;28;20201;-65
2023/08/05 07:49:40;;;;;;;11.15;9.88;;;;;;;;;;5055091;28;20703;-66
2023/08/05 07:52:07;;;;;;;12.68;10.05;;;;;;;;;;5054032;28;20214;-65
2023/08/05 07:54:35;;;;;;;23.92;16.33;;;;;;;;;;5049647;28;20293;-72
2023/08/05 07:57:02;;;;;;;11.07;9.60;;;;;;;;;;5054455;28;20206;-65
2023/08/05 07:59:30;;;;;;;10.52;9.52;;;;;;;;;;5057926;28;20226;-65
2023/08/05 08:01:59;;;;;;;11.32;9.02;;;;;;;;;;5043391;28;20721;-72
2023/08/05 08:04:27;;;;;;;11.63;8.73;;;;;;;;;;5052466;28;20578;-66
2023/08/05 08:06:54;;;;;;;8.52;7.63;;;;;;;;;;5057477;28;20197;-67
2023/08/05 08:09:22;;;;;;;9.27;8.32;;;;;;;;;;5054552;28;20694;-63
2023/08/05 08:11:49;;;;;;;8.40;7.60;;;;;;;;;;5047247;28;20879;-64
2023/08/05 08:14:17;;;;;;;9.23;8.23;;;;;;;;;;5059336;28;20242;-70
2023/08/05 08:16:45;;;;;;;9.45;7.70;;;;;;;;;;5057419;28;21675;-66
2023/08/05 08:19:13;;;;;;;8.73;7.82;;;;;;;;;;5052018;28;20813;-65
2023/08/05 08:21:40;;;;;;;7.85;7.15;;;;;;;;;;5047065;28;20603;-70
2023/08/05 08:24:08;;;;;;;7.55;6.85;;;;;;;;;;5051720;28;20209;-67
2023/08/05 08:26:36;;;;;;;9.10;6.95;;;;;;;;;;5057016;28;20274;-64
2023/08/05 08:29:03;;;;;;;8.57;6.68;;;;;;;;;;5051782;28;20232;-64
2023/08/05 08:31:31;;;;;;;8.50;7.45;;;;;;;;;;5036148;28;20231;-71
2023/08/05 08:33:59;;;;;;;7.93;5.85;;;;;;;;;;5057174;28;20201;-68
2023/08/05 08:36:26;;;;;;;7.78;6.53;;;;;;;;;;5059360;28;20551;-66
2023/08/05 08:38:54;;;;;;;6.88;6.07;;;;;;;;;;5058660;28;20232;-64
2023/08/05 08:41:21;;;;;;;8.73;6.57;;;;;;;;;;5063777;28;20213;-69
2023/08/05 08:43:49;;;;;;;9.00;6.72;;;;;;;;;;5065473;28;20216;-66
2023/08/05 08:46:17;;;;;;;8.52;6.30;;;;;;;;;;5053073;28;20260;-64
2023/08/05 08:48:44;;;;;;;9.27;7.00;;;;;;;;;;5063884;28;20213;-64
2023/08/05 08:51:13;;;;;;;8.10;7.07;;;;;;;;;;5057030;28;20205;-64
2023/08/05 08:53:42;;;;;;;6.95;6.15;;;;;;;;;;5057477;28;20206;-66
2023/08/05 08:56:09;;;;;;;6.90;6.20;;;;;;;;;;5059481;28;20201;-66
2023/08/05 08:58:37;;;;;;;7.70;6.50;;;;;;;;;;5056616;28;20271;-66
2023/08/05 09:01:05;;;;;;;6.43;5.82;;;;;;;;;;5060631;28;20201;-66
2023/08/05 09:03:34;;;;;;;7.38;6.65;;;;;;;;;;5054926;28;20245;-67
2023/08/05 09:06:01;;;;;;;9.50;6.47;;;;;;;;;;5056528;28;20807;-64
2023/08/05 09:08:29;;;;;;;6.35;5.82;;;;;;;;;;5062330;28;20305;-65
2023/08/05 09:10:57;;;;;;;8.65;6.68;;;;;;;;;;5061641;28;20206;-66
2023/08/05 09:13:24;;;;;;;8.13;5.78;;;;;;;;;;5061097;28;20658;-64
2023/08/05 09:15:51;;;;;;;5.85;5.38;;;;;;;;;;5060848;28;20295;-65
2023/08/05 09:18:19;;;;;;;6.18;5.55;;;;;;;;;;5059021;28;20612;-62
2023/08/05 09:20:49;;;;;;;7.30;5.72;;;;;;;;;;5050203;28;20201;-65
2023/08/05 09:23:16;;;;;;;5.90;5.25;;;;;;;;;;5061069;28;20683;-64
2023/08/05 09:25:47;;;;;;;6.38;5.78;;;;;;;;;;5050645;28;20202;-64
2023/08/05 09:28:29;;;;;;;7.55;5.85;;;;;;;;;;5054596;28;20304;-64
2023/08/05 09:31:16;;;;;;;5.63;5.13;;;;;;;;;;5054170;28;20284;-64
2023/08/05 09:33:44;;;;;;;7.28;4.88;;;;;;;;;;5054062;28;20440;-64
2023/08/05 09:36:12;;;;;;;5.20;4.70;;;;;;;;;;5051040;28;20213;-65
2023/08/05 09:38:40;;;;;;;5.60;5.10;;;;;;;;;;5069874;28;20225;-64
2023/08/05 09:41:08;;;;;;;4.85;4.38;;;;;;;;;;5060399;28;20634;-65
2023/08/05 09:43:40;;;;;;;5.68;5.00;;;;;;;;;;5054661;28;20233;-65
2023/08/05 09:46:11;;;;;;;5.97;4.70;;;;;;;;;;5040791;28;20197;-65
2023/08/05 09:48:43;;;;;;;5.32;4.85;;;;;;;;;;5051818;28;20313;-62
2023/08/05 09:51:16;;;;;;;5.75;4.57;;;;;;;;;;5052672;28;20229;-64
2023/08/05 09:53:46;;;;;;;5.43;4.90;;;;;;;;;;5055501;28;20205;-65
2023/08/05 09:56:18;;;;;;;5.15;4.68;;;;;;;;;;5055103;28;20868;-64
2023/08/05 09:58:47;;;;;;;4.70;4.30;;;;;;;;;;5055185;28;20261;-63
2023/08/05 10:01:14;;;;;;;4.70;4.25;;;;;;;;;;5049258;28;20213;-64
2023/08/05 10:03:42;;;;;;;6.25;4.80;;;;;;;;;;5052619;28;20236;-63
2023/08/05 10:06:11;;;;;;;5.22;4.72;;;;;;;;;;5031363;28;20311;-64
2023/08/05 10:08:40;;;;;;;5.85;5.10;;;;;;;;;;5020633;28;21198;-63
2023/08/05 10:11:08;;;;;;;10.10;7.93;;;;;;;;;;5046666;28;20779;-63
2023/08/05 10:13:37;;;;;;;7.28;4.47;;;;;;;;;;5044464;28;20214;-63
2023/08/05 10:16:06;;;;;;;8.13;6.78;;;;;;;;;;5036764;28;20209;-64
2023/08/05 10:18:34;;;;;;;5.72;3.75;;;;;;;;;;5044884;28;20230;-64
2023/08/05 10:21:06;;;;;;;3.55;3.25;;;;;;;;;;5045925;28;20202;-64
2023/08/05 10:23:35;;;;;;;3.90;3.60;;;;;;;;;;5040724;28;20718;-64
2023/08/05 10:26:04;;;;;;;5.93;3.72;;;;;;;;;;5048929;28;20301;-64
2023/08/05 10:28:34;;;;;;;3.90;3.33;;;;;;;;;;5030016;28;20706;-63
2023/08/05 10:31:23;;;;;;;3.60;3.30;;;;;;;;;;5043398;28;20214;-64
2023/08/05 10:34:10;;;;;;;3.45;2.88;;;;;;;;;;5036795;28;20242;-63
2023/08/05 10:36:42;;;;;;;3.97;2.55;;;;;;;;;;5029113;28;20737;-63
2023/08/05 10:39:28;;;;;;;3.45;2.90;;;;;;;;;;5049374;28;20230;-64
2023/08/05 10:41:55;;;;;;;3.22;2.92;;;;;;;;;;5043602;28;20266;-63
2023/08/05 10:44:35;;;;;;;4.95;3.40;;;;;;;;;;5028617;28;20202;-63
2023/08/05 10:47:04;;;;;;;4.63;3.00;;;;;;;;;;5037707;28;20198;-63
2023/08/05 10:49:31;;;;;;;3.20;2.80;;;;;;;;;;5044964;28;20222;-63
2023/08/05 10:51:59;;;;;;;2.92;2.72;;;;;;;;;;5049519;28;20581;-63
2023/08/05 10:54:31;;;;;;;3.22;2.72;;;;;;;;;;5050848;28;20206;-64
2023/08/05 10:56:58;;;;;;;3.08;2.88;;;;;;;;;;5045692;28;21564;-63
2023/08/05 10:59:26;;;;;;;3.30;2.90;;;;;;;;;;5046035;28;20268;-63
2023/08/05 11:01:57;;;;;;;3.17;2.83;;;;;;;;;;5042740;28;20206;-64
2023/08/05 11:04:30;;;;;;;3.50;3.20;;;;;;;;;;5047668;28;20210;-64
2023/08/05 11:07:00;;;;;;;5.13;3.97;;;;;;;;;;5048919;28;20194;-63
2023/08/05 11:09:28;;;;;;;3.80;3.50;;;;;;;;;;5031175;28;20241;-65
2023/08/05 11:11:55;;;;;;;3.20;2.72;;;;;;;;;;5049682;28;20630;-64
2023/08/05 11:14:26;;;;;;;4.70;3.10;;;;;;;;;;5040204;28;20259;-65
2023/08/05 11:17:00;;;;;;;2.95;2.70;;;;;;;;;;5050419;28;20208;-65
2023/08/05 11:19:27;;;;;;;3.72;2.75;;;;;;;;;;5053112;28;20308;-65
2023/08/05 11:21:55;;;;;;;2.55;2.38;;;;;;;;;;5047528;28;20233;-64
2023/08/05 11:24:22;;;;;;;2.63;2.33;;;;;;;;;;5047944;28;20202;-65
2023/08/05 11:26:49;;;;;;;2.70;2.50;;;;;;;;;;5041293;28;20721;-65
2023/08/05 11:29:17;;;;;;;2.35;2.22;;;;;;;;;;5046425;28;20221;-65
2023/08/05 11:31:51;;;;;;;3.60;2.30;;;;;;;;;;5042694;28;20686;-64
2023/08/05 11:34:24;;;;;;;2.95;2.60;;;;;;;;;;5041969;28;20208;-65
2023/08/05 11:36:55;;;;;;;2.63;2.40;;;;;;;;;;5047185;28;20228;-64
2023/08/05 11:39:23;;;;;;;2.50;2.30;;;;;;;;;;5048959;28;20214;-64
2023/08/05 11:41:51;;;;;;;2.35;2.15;;;;;;;;;;5053546;28;20231;-65
2023/08/05 11:44:19;;;;;;;4.45;3.28;;;;;;;;;;5045577;28;20218;-65
2023/08/05 11:46:47;;;;;;;4.15;3.55;;;;;;;;;;5048181;28;20205;-65
2023/08/05 11:49:26;;;;;;;3.38;2.40;;;;;;;;;;5044380;28;20865;-64
2023/08/05 11:51:53;;;;;;;2.50;2.30;;;;;;;;;;5046794;28;20556;-65
2023/08/05 11:54:34;;;;;;;2.13;2.03;;;;;;;;;;5043940;28;20237;-64
2023/08/05 11:57:18;;;;;;;2.63;2.42;;;;;;;;;;5039759;28;21248;-65
2023/08/05 11:59:47;;;;;;;2.50;2.30;;;;;;;;;;5042220;28;20235;-65
2023/08/05 12:02:17;;;;;;;2.50;2.00;;;;;;;;;;5044017;28;20272;-64
2023/08/05 12:05:05;;;;;;;2.40;2.20;;;;;;;;;;5021886;28;20214;-65
2023/08/05 12:07:41;;;;;;;3.03;2.83;;;;;;;;;;5043870;28;20590;-65
2023/08/05 12:10:19;;;;;;;2.85;2.65;;;;;;;;;;5045891;28;20218;-65
2023/08/05 12:12:47;;;;;;;2.08;1.95;;;;;;;;;;5041922;28;20260;-65
2023/08/05 12:15:17;;;;;;;2.65;2.20;;;;;;;;;;5043893;28;20204;-65
2023/08/05 12:17:46;;;;;;;2.55;2.15;;;;;;;;;;5045575;28;20289;-65
2023/08/05 12:20:18;;;;;;;2.97;2.50;;;;;;;;;;5044680;28;20309;-64
2023/08/05 12:22:46;;;;;;;2.78;2.58;;;;;;;;;;5056388;28;20237;-65
2023/08/05 12:25:13;;;;;;;2.50;2.30;;;;;;;;;;5052701;28;20201;-64
2023/08/05 12:27:41;;;;;;;2.47;2.28;;;;;;;;;;5047765;28;20286;-65
2023/08/05 12:30:09;;;;;;;2.38;2.17;;;;;;;;;;5050602;28;20234;-65
2023/08/05 12:32:36;;;;;;;3.58;2.60;;;;;;;;;;5048020;28;20218;-66
2023/08/05 12:35:05;;;;;;;3.08;2.78;;;;;;;;;;5050904;28;20589;-65
2023/08/05 12:37:35;;;;;;;2.60;2.40;;;;;;;;;;5051322;28;20221;-65
2023/08/05 12:40:06;;;;;;;2.72;2.20;;;;;;;;;;5048729;28;20236;-65
2023/08/05 12:42:33;;;;;;;2.03;1.92;;;;;;;;;;5045763;28;20707;-66
2023/08/05 12:45:03;;;;;;;3.13;2.10;;;;;;;;;;5043498;28;20206;-66
2023/08/05 12:47:34;;;;;;;2.25;2.05;;;;;;;;;;5045975;28;20279;-66
2023/08/05 12:50:03;;;;;;;2.08;1.98;;;;;;;;;;5045831;28;20272;-65
2023/08/05 12:52:31;;;;;;;2.40;2.20;;;;;;;;;;5038861;28;20213;-64
2023/08/05 12:54:58;;;;;;;2.60;2.40;;;;;;;;;;5042988;28;20197;-65
2023/08/05 12:57:26;;;;;;;2.60;2.30;;;;;;;;;;5046043;28;20195;-65
2023/08/05 12:59:53;;;;;;;3.88;2.40;;;;;;;;;;5052268;28;20829;-65
2023/08/05 13:02:23;;;;;;;2.75;2.47;;;;;;;;;;5044761;28;20210;-65
2023/08/05 13:04:55;;;;;;;3.00;2.80;;;;;;;;;;5045283;28;20220;-65
2023/08/05 13:07:23;;;;;;;4.22;2.58;;;;;;;;;;5039651;28;20198;-65
2023/08/05 13:09:50;;;;;;;3.15;2.85;;;;;;;;;;5054756;28;20241;-66
2023/08/05 13:12:18;;;;;;;3.20;2.90;;;;;;;;;;5046015;28;20211;-63
2023/08/05 13:14:45;;;;;;;4.53;3.28;;;;;;;;;;5050354;28;20255;-65
2023/08/05 13:17:13;;;;;;;3.30;2.97;;;;;;;;;;5042247;28;20198;-65
2023/08/05 13:19:42;;;;;;;3.50;3.10;;;;;;;;;;5049059;28;20741;-65
2023/08/05 13:22:09;;;;;;;3.22;2.92;;;;;;;;;;5041891;28;21913;-65
2023/08/05 13:24:36;;;;;;;4.57;3.25;;;;;;;;;;5047256;28;20221;-66
2023/08/05 13:27:04;;;;;;;3.47;3.17;;;;;;;;;;5042253;28;20216;-65
2023/08/05 13:29:31;;;;;;;3.20;3.00;;;;;;;;;;5042487;28;20222;-65
2023/08/05 13:31:59;;;;;;;3.15;2.90;;;;;;;;;;5051482;28;20258;-66
2023/08/05 13:34:26;;;;;;;3.28;2.95;;;;;;;;;;5048373;28;20253;-64
2023/08/05 13:36:53;;;;;;;4.00;3.00;;;;;;;;;;5046658;28;20205;-64
2023/08/05 13:39:22;;;;;;;3.28;3.00;;;;;;;;;;5043982;28;20233;-66
2023/08/05 13:41:56;;;;;;;4.82;3.47;;;;;;;;;;5043544;28;20621;-66
2023/08/05 13:44:26;;;;;;;3.80;2.90;;;;;;;;;;5041333;28;20230;-65
2023/08/05 13:46:56;;;;;;;4.93;3.20;;;;;;;;;;5032527;28;20208;-65
2023/08/05 13:49:28;;;;;;;3.20;2.88;;;;;;;;;;5031244;28;20240;-65
2023/08/05 13:51:55;;;;;;;6.30;3.75;;;;;;;;;;5043108;28;20687;-65
2023/08/05 13:54:23;;;;;;;3.83;3.17;;;;;;;;;;5044360;28;20213;-66
2023/08/05 13:56:50;;;;;;;4.43;3.30;;;;;;;;;;5031033;28;20216;-65
2023/08/05 13:59:17;;;;;;;3.40;3.10;;;;;;;;;;5040096;28;20239;-65
2023/08/05 14:01:46;;;;;;;4.80;3.08;;;;;;;;;;5048197;28;20209;-64
2023/08/05 14:04:13;;;;;;;3.65;2.90;;;;;;;;;;5050142;28;20764;-67
2023/08/05 14:06:41;;;;;;;3.30;3.00;;;;;;;;;;5039740;28;21061;-66
2023/08/05 14:09:08;;;;;;;4.63;3.08;;;;;;;;;;5041019;28;20225;-66
2023/08/05 14:11:36;;;;;;;3.05;2.72;;;;;;;;;;5042898;28;20206;-67
2023/08/05 14:14:03;;;;;;;3.67;2.60;;;;;;;;;;5049331;28;20209;-67
2023/08/05 14:16:30;;;;;;;3.10;2.90;;;;;;;;;;5043940;28;20284;-66
2023/08/05 14:18:59;;;;;;;3.58;3.28;;;;;;;;;;5043011;28;20230;-66
2023/08/05 14:21:27;;;;;;;3.13;2.63;;;;;;;;;;5041862;28;20213;-66
2023/08/05 14:23:54;;;;;;;3.63;3.33;;;;;;;;;;5040520;28;20229;-67
2023/08/05 14:26:22;;;;;;;2.95;2.58;;;;;;;;;;5034658;28;20577;-68
2023/08/05 14:28:49;;;;;;;5.60;4.72;;;;;;;;;;5045952;28;20316;-66
2023/08/05 14:31:17;;;;;;;3.47;3.13;;;;;;;;;;5036444;28;20217;-64
2023/08/05 14:33:44;;;;;;;4.75;4.05;;;;;;;;;;5038237;28;20206;-67
2023/08/05 14:36:12;;;;;;;2.72;2.53;;;;;;;;;;5039066;28;20274;-66